Time;durP1;ratioP1;P1;durP2;ratioP2;P2;SDS_P1;SDS_P2;PMS_P1;PMS_P2;Temp;Humidity;BMP_temperature;BMP_pressure;BME280_temperature;BME280_humidity;BME280_pressure;Samples;Min_cycle;Max_cycle;Signal;HPM_P1;HPM_P2
2022/08/08 00:00:20;;;;;;;0.40;0.40;;;;;;;17.71;41.88;97195.44;29395;362;63009;-68
2022/08/08 00:01:05;;;;;;;0.40;0.40;;;;;;;17.70;41.53;97205.63;29395;219;63005;-70
2022/08/08 00:01:52;;;;;;;0.40;0.40;;;;;;;17.69;41.47;97198.53;29394;207;64013;-69
2022/08/08 00:03:18;;;;;;;0.40;0.40;;;;;;;17.68;42.05;97199.66;29395;202;63004;-69
2022/08/08 00:04:01;;;;;;;0.40;0.40;;;;;;;17.67;42.06;97205.50;29395;201;63008;-71
2022/08/08 00:05:02;;;;;;;0.40;0.40;;;;;;;17.66;41.70;97199.22;29395;197;63005;-68
2022/08/08 00:06:08;;;;;;;0.40;0.40;;;;;;;17.65;42.00;97207.78;29395;252;63009;-68
2022/08/08 00:06:47;;;;;;;0.40;0.40;;;;;;;17.64;41.41;97200.66;29394;221;64009;-69
2022/08/08 00:07:46;;;;;;;0.40;0.40;;;;;;;17.63;41.63;97199.84;29395;297;63009;-67
2022/08/08 00:08:41;;;;;;;0.40;0.40;;;;;;;17.62;41.29;97197.41;29395;197;63005;-70
2022/08/08 00:09:36;;;;;;;0.50;0.50;;;;;;;17.60;41.58;97199.69;29395;242;63009;-70
2022/08/08 00:10:32;;;;;;;0.50;0.50;;;;;;;17.59;41.67;97201.63;29395;204;63004;-70
2022/08/08 00:11:42;;;;;;;0.40;0.40;;;;;;;17.57;42.28;97200.34;29395;204;63008;-69
2022/08/08 00:12:19;;;;;;;0.40;0.40;;;;;;;17.56;42.40;97204.22;29394;198;64009;-68
2022/08/08 00:13:18;;;;;;;0.40;0.40;;;;;;;17.57;42.75;97200.34;29394;202;64009;-69
2022/08/08 00:14:03;;;;;;;0.40;0.40;;;;;;;17.55;42.85;97208.09;29395;338;63005;-68
2022/08/08 00:14:57;;;;;;;0.40;0.40;;;;;;;17.54;43.03;97209.25;29395;288;63009;-68
2022/08/08 00:15:35;;;;;;;0.40;0.40;;;;;;;17.52;42.78;97203.28;29395;217;63005;-69
2022/08/08 00:16:18;;;;;;;0.40;0.40;;;;;;;17.50;43.23;97200.84;29395;198;63009;-71
2022/08/08 00:17:08;;;;;;;0.40;0.40;;;;;;;17.49;42.99;97209.41;29394;214;64004;-68
2022/08/08 00:17:51;;;;;;;0.40;0.40;;;;;;;17.48;43.07;97207.81;29394;218;64013;-69
2022/08/08 00:18:54;;;;;;;0.40;0.40;;;;;;;17.47;43.18;97211.69;29395;224;63011;-69
2022/08/08 00:19:40;;;;;;;0.40;0.40;;;;;;;17.48;43.15;97216.03;29395;197;63009;-70
2022/08/08 00:20:15;;;;;;;0.40;0.40;;;;;;;17.47;42.84;97214.44;29395;262;63009;-68
2022/08/08 00:20:53;;;;;;;0.40;0.40;;;;;;;17.46;43.00;97210.87;29395;217;63009;-69
2022/08/08 00:21:32;;;;;;;0.40;0.40;;;;;;;17.46;43.11;97215.56;29395;204;63005;-69
2022/08/08 00:22:14;;;;;;;0.40;0.40;;;;;;;17.45;43.30;97213.94;29395;268;63009;-68
2022/08/08 00:22:53;;;;;;;0.40;0.40;;;;;;;17.43;43.05;97217.81;29394;204;64009;-69
2022/08/08 00:23:47;;;;;;;0.40;0.40;;;;;;;17.43;43.46;97217.03;29395;323;63009;-68
2022/08/08 00:24:30;;;;;;;0.40;0.40;;;;;;;17.43;43.15;97217.03;29395;199;63009;-69
2022/08/08 00:25:09;;;;;;;0.40;0.40;;;;;;;17.40;43.39;97213.00;29395;237;63009;-57
2022/08/08 00:25:48;;;;;;;0.45;0.45;;;;;;;17.40;43.24;97212.19;29395;296;63008;-69
2022/08/08 00:26:45;;;;;;;0.40;0.40;;;;;;;17.37;43.23;97213.66;29395;203;63004;-69
2022/08/08 00:27:19;;;;;;;0.40;0.40;;;;;;;17.35;43.24;97229.63;29395;207;63009;-69
2022/08/08 00:27:56;;;;;;;0.40;0.40;;;;;;;17.33;44.22;97229.16;29394;253;64009;-69
2022/08/08 00:28:38;;;;;;;0.40;0.40;;;;;;;17.27;44.65;97235.97;29395;197;63009;-70
2022/08/08 00:29:29;;;;;;;0.40;0.40;;;;;;;17.21;45.82;97241.97;29394;196;64009;-69
2022/08/08 00:30:06;;;;;;;0.50;0.50;;;;;;;17.14;45.75;97242.44;29417;204;63009;-70
2022/08/08 00:30:44;;;;;;;0.40;0.40;;;;;;;17.13;44.77;97232.63;29395;232;63004;-69
2022/08/08 00:31:27;;;;;;;0.40;0.40;;;;;;;17.12;44.89;97235.69;29395;335;63009;-71
2022/08/08 00:32:09;;;;;;;0.40;0.40;;;;;;;17.11;44.77;97237.62;29395;233;63004;-70
2022/08/08 00:32:45;;;;;;;;;;;;;;;17.12;44.40;97231.00;29996;983;6004;-69
2022/08/08 00:33:20;;;;;;;0.50;0.50;;;;;;;17.12;44.40;97233.75;29400;226;63008;-69
2022/08/08 00:36:03;;;;;;;0.40;0.40;;;;;;;17.05;44.79;97238.91;29394;214;64013;-69
2022/08/08 00:36:42;;;;;;;0.40;0.40;;;;;;;17.05;45.28;97238.91;29395;200;63005;-69
2022/08/08 00:38:04;;;;;;;0.40;0.40;;;;;;;16.99;45.89;97245.69;29395;209;63015;-71
2022/08/08 00:39:04;;;;;;;2.15;2.05;;;;;;;16.89;45.67;97246.06;29479;206;125004;-70
2022/08/08 00:39:50;;;;;;;0.40;0.40;;;;;;;16.88;46.86;97247.19;29395;325;63009;-69
2022/08/08 00:41:02;;;;;;;0.40;0.40;;;;;;;16.77;47.42;97254.12;29394;211;64008;-69
2022/08/08 00:42:28;;;;;;;0.43;0.43;;;;;;;16.64;47.49;97251.22;29417;242;63009;-68
2022/08/08 00:43:37;;;;;;;0.40;0.40;;;;;;;16.63;47.25;97249.56;29395;216;63005;-68
2022/08/08 00:45:14;;;;;;;0.40;0.40;;;;;;;16.64;46.87;97245.75;29395;227;63005;-68
2022/08/08 00:46:07;;;;;;;0.40;0.40;;;;;;;16.63;46.62;97249.56;29394;262;64013;-59
2022/08/08 00:47:25;;;;;;;0.50;0.50;;;;;;;16.67;46.00;97247.03;29395;218;63004;-56
2022/08/08 00:48:38;;;;;;;0.50;0.50;;;;;;;16.69;45.75;97248.31;29395;199;63008;-57
2022/08/08 00:49:46;;;;;;;0.40;0.40;;;;;;;16.71;45.68;97242.53;29417;204;63005;-67
2022/08/08 00:51:06;;;;;;;0.50;0.50;;;;;;;16.64;47.22;97255.91;29395;222;63014;-69
2022/08/08 00:52:11;;;;;;;0.40;0.40;;;;;;;16.62;47.00;97256.22;29394;296;64009;-70
2022/08/08 00:53:45;;;;;;;0.50;0.50;;;;;;;16.55;47.01;97264.09;29395;198;63009;-69
2022/08/08 00:55:09;;;;;;;0.40;0.40;;;;;;;16.57;46.42;97255.56;29416;215;64024;-70
2022/08/08 00:56:35;;;;;;;0.40;0.40;;;;;;;16.58;46.72;97257.97;29395;212;63008;-69
2022/08/08 00:58:01;;;;;;;0.40;0.40;;;;;;;16.52;46.44;97253.78;29395;217;63005;-68
2022/08/08 00:59:38;;;;;;;0.50;0.50;;;;;;;16.51;46.64;97257.66;29394;236;64013;-69
2022/08/08 01:00:24;;;;;;;0.50;0.50;;;;;;;16.53;46.23;97254.59;29395;240;63005;-68
2022/08/08 01:01:31;;;;;;;0.40;0.40;;;;;;;16.55;46.19;97253.16;29395;239;63009;-70
2022/08/08 01:02:50;;;;;;;0.40;0.40;;;;;;;16.57;46.44;97253.62;29395;208;63004;-70
2022/08/08 01:04:10;;;;;;;0.40;0.40;;;;;;;16.58;46.43;97265.41;29395;222;63014;-68
2022/08/08 01:05:26;;;;;;;0.40;0.40;;;;;;;16.55;46.85;97258.63;29394;213;64014;-68
2022/08/08 01:06:40;;;;;;;0.50;0.50;;;;;;;16.56;47.04;97264.91;29395;207;63005;-68
2022/08/08 01:07:49;;;;;;;0.45;0.45;;;;;;;16.56;46.73;97262.19;29395;220;63009;-68
2022/08/08 01:09:14;;;;;;;0.50;0.50;;;;;;;16.58;46.20;97266.22;29395;197;63004;-68
2022/08/08 01:10:34;;;;;;;0.40;0.40;;;;;;;16.57;47.17;97264.59;29394;211;64013;-57
2022/08/08 01:11:46;;;;;;;0.40;0.40;;;;;;;16.52;48.33;97270.22;29395;229;63004;-69
2022/08/08 01:12:50;;;;;;;1.60;1.50;;;;;;;16.47;47.86;97272.31;29394;261;64014;-68
2022/08/08 01:13:53;;;;;;;0.40;0.40;;;;;;;16.47;47.66;97270.38;29395;205;63008;-68
2022/08/08 01:15:05;;;;;;;0.40;0.40;;;;;;;16.51;47.37;97265.88;29395;214;63005;-69
2022/08/08 01:16:31;;;;;;;0.40;0.40;;;;;;;16.55;47.04;97263.31;29417;218;63009;-56
2022/08/08 01:17:48;;;;;;;0.47;0.47;;;;;;;16.54;47.02;97257.00;29373;223;63008;-67
2022/08/08 01:18:55;;;;;;;0.50;0.50;;;;;;;16.57;46.61;97261.03;29394;250;64013;-68
2022/08/08 01:20:02;;;;;;;0.40;0.40;;;;;;;16.58;46.08;97252.50;29395;209;63009;-69
2022/08/08 01:21:10;;;;;;;0.50;0.50;;;;;;;16.58;46.14;97257.19;29395;229;63009;-68
2022/08/08 01:22:48;;;;;;;0.50;0.50;;;;;;;16.58;45.90;97252.50;29395;228;63005;-69
2022/08/08 01:24:03;;;;;;;0.50;0.50;;;;;;;16.59;45.91;97251.38;29394;222;64013;-68
2022/08/08 01:25:24;;;;;;;0.50;0.50;;;;;;;16.59;45.98;97254.12;29395;317;63004;-69
2022/08/08 01:26:45;;;;;;;0.50;0.50;;;;;;;16.59;45.77;97251.38;29395;216;63008;-69
2022/08/08 01:27:52;;;;;;;0.40;0.40;;;;;;;16.61;46.21;97246.38;29395;222;63005;-69
2022/08/08 01:29:03;;;;;;;0.50;0.50;;;;;;;16.61;46.13;97246.38;29394;270;64013;-69
2022/08/08 01:30:23;;;;;;;0.50;0.50;;;;;;;16.62;45.82;97248.00;29394;250;64009;-68
2022/08/08 01:31:44;;;;;;;0.50;0.50;;;;;;;16.59;46.36;97247.84;29395;212;63009;-70
2022/08/08 01:33:03;;;;;;;0.50;0.50;;;;;;;16.60;45.85;97246.72;29395;242;63004;-67
2022/08/08 01:34:15;;;;;;;0.50;0.50;;;;;;;16.64;44.54;97240.25;29394;223;64009;-67
2022/08/08 01:35:30;;;;;;;0.50;0.50;;;;;;;16.64;44.62;97243.00;29417;220;63009;-69
2022/08/08 01:36:55;;;;;;;0.50;0.50;;;;;;;16.62;45.04;97242.53;29394;209;64013;-69
2022/08/08 01:38:17;;;;;;;0.50;0.50;;;;;;;16.62;44.90;97245.25;29395;214;63004;-69
2022/08/08 01:39:26;;;;;;;0.40;0.40;;;;;;;16.63;45.56;97243.31;29417;295;63009;-68
2022/08/08 01:40:29;;;;;;;0.50;0.50;;;;;;;16.66;45.36;97248.16;29395;202;63007;-67
2022/08/08 01:41:38;;;;;;;0.50;0.50;;;;;;;16.65;45.05;97236.41;29394;201;64009;-69
2022/08/08 01:42:30;;;;;;;0.50;0.50;;;;;;;16.65;45.17;97241.87;29394;221;64009;-69
2022/08/08 01:43:33;;;;;;;0.50;0.50;;;;;;;16.63;46.29;97249.56;29395;271;63009;-68
2022/08/08 01:44:42;;;;;;;0.50;0.50;;;;;;;16.59;46.35;97242.34;29395;237;63005;-71
2022/08/08 01:45:47;;;;;;;0.50;0.50;;;;;;;16.56;46.64;97251.22;29395;222;63004;-70
2022/08/08 01:46:56;;;;;;;0.50;0.50;;;;;;;16.56;46.16;97249.28;29395;202;63004;-70
2022/08/08 01:48:13;;;;;;;0.50;0.50;;;;;;;16.55;46.36;97247.66;29394;218;64008;-69
2022/08/08 01:49:17;;;;;;;0.40;0.40;;;;;;;16.56;45.85;97243.81;29395;251;63009;-71
2022/08/08 01:50:19;;;;;;;0.40;0.40;;;;;;;16.56;45.56;97249.28;29395;239;63009;-69
2022/08/08 01:51:30;;;;;;;0.50;0.50;;;;;;;16.55;45.54;97252.34;29395;288;63004;-69
2022/08/08 01:52:35;;;;;;;0.50;0.50;;;;;;;16.49;46.59;97256.38;29395;196;63009;-71
2022/08/08 01:54:00;;;;;;;0.50;0.50;;;;;;;16.42;46.78;97259.56;29394;230;64013;-68
2022/08/08 01:55:08;;;;;;;0.50;0.50;;;;;;;16.38;46.64;97242.19;29395;215;63009;-70
2022/08/08 01:56:27;;;;;;;0.50;0.50;;;;;;;16.43;46.27;97255.72;29395;197;63008;-68
2022/08/08 01:57:29;;;;;;;0.50;0.50;;;;;;;16.46;46.38;97255.06;29395;247;63005;-68
2022/08/08 01:58:40;;;;;;;0.50;0.50;;;;;;;16.47;46.16;97251.22;29417;208;63009;-69
2022/08/08 01:59:49;;;;;;;0.50;0.50;;;;;;;16.49;46.06;97254.44;29394;277;64009;-70
2022/08/08 02:00:40;;;;;;;0.50;0.50;;;;;;;16.47;46.10;97245.72;29395;216;63009;-70
2022/08/08 02:01:23;;;;;;;0.50;0.50;;;;;;;16.46;46.21;97252.34;29395;252;63004;-68
2022/08/08 02:02:32;;;;;;;0.50;0.50;;;;;;;16.43;45.95;97250.25;29395;202;63004;-69
2022/08/08 02:03:36;;;;;;;0.50;0.50;;;;;;;16.41;46.20;97249.75;29395;248;63004;-69
2022/08/08 02:04:41;;;;;;;0.50;0.50;;;;;;;16.38;46.13;97245.72;29395;233;63005;-69
2022/08/08 02:05:57;;;;;;;0.50;0.50;;;;;;;16.33;46.22;97261.50;29394;200;64013;-69
2022/08/08 02:07:00;;;;;;;0.40;0.40;;;;;;;16.32;45.67;97243.47;29395;199;63005;-71
2022/08/08 02:08:15;;;;;;;0.50;0.50;;;;;;;16.28;46.10;97245.25;29395;210;63004;-71
2022/08/08 02:09:07;;;;;;;0.50;0.50;;;;;;;16.27;46.98;97247.19;29395;218;63009;-69
2022/08/08 02:10:14;;;;;;;0.40;0.40;;;;;;;16.27;46.73;97243.63;29395;226;63004;-68
2022/08/08 02:11:00;;;;;;;0.50;0.50;;;;;;;16.27;46.37;97251.84;29394;211;64013;-70
2022/08/08 02:11:41;;;;;;;0.40;0.40;;;;;;;16.27;46.68;97247.19;29395;213;63005;-69
2022/08/08 02:12:24;;;;;;;0.50;0.50;;;;;;;16.27;46.33;97240.91;29417;273;63016;-70
2022/08/08 02:13:23;;;;;;;0.45;0.45;;;;;;;16.28;46.36;97242.50;29395;206;63005;-68
2022/08/08 02:14:40;;;;;;;0.50;0.50;;;;;;;16.26;46.37;97242.03;29395;197;63012;-71
2022/08/08 02:16:06;;;;;;;0.50;0.50;;;;;;;16.27;46.22;97246.38;29394;206;64004;-72
2022/08/08 02:17:13;;;;;;;0.50;0.50;;;;;;;16.26;46.46;97234.63;29394;206;64013;-69
2022/08/08 02:18:16;;;;;;;0.45;0.45;;;;;;;16.28;46.28;97237.03;29395;274;63008;-69
2022/08/08 02:19:05;;;;;;;;;;;;;;;16.28;46.82;97237.03;29996;983;6005;-69
2022/08/08 02:19:46;;;;;;;0.40;0.40;;;;;;;16.28;46.51;97231.56;29400;224;63009;-70
2022/08/08 02:22:30;;;;;;;0.50;0.50;;;;;;;16.24;46.29;97236.88;29394;199;64013;-69
2022/08/08 02:23:22;;;;;;;0.40;0.40;;;;;;;16.23;46.46;97234.44;29395;219;63004;-69
2022/08/08 02:24:14;;;;;;;0.50;0.50;;;;;;;16.21;46.39;97236.69;29417;199;63009;-69
2022/08/08 02:25:26;;;;;;;0.50;0.50;;;;;;;16.21;46.56;97233.97;29395;199;63004;-71
2022/08/08 02:26:17;;;;;;;0.50;0.50;;;;;;;16.19;46.56;97230.75;29417;210;63005;-69
2022/08/08 02:27:12;;;;;;;0.50;0.50;;;;;;;16.18;46.44;97232.66;29416;271;64009;-70
2022/08/08 02:27:58;;;;;;;0.50;0.50;;;;;;;16.18;46.96;97238.16;29395;225;63009;-71
2022/08/08 02:28:51;;;;;;;0.50;0.50;;;;;;;16.17;48.24;97246.69;29395;318;63005;-69
2022/08/08 02:29:56;;;;;;;0.40;0.40;;;;;;;16.09;48.27;97234.59;29395;208;63009;-70
2022/08/08 02:30:58;;;;;;;0.43;0.43;;;;;;;16.07;48.22;97240.38;29395;207;63004;-68
2022/08/08 02:32:20;;;;;;;0.40;0.40;;;;;;;16.09;48.00;97238.12;29417;197;63009;-69
2022/08/08 02:33:23;;;;;;;0.50;0.50;;;;;;;16.11;47.97;97237.00;29394;202;64008;-69
2022/08/08 02:34:37;;;;;;;0.50;0.50;;;;;;;16.10;47.56;97236.19;29395;244;63005;-68
2022/08/08 02:35:38;;;;;;;0.40;0.40;;;;;;;16.09;47.94;97240.06;29395;210;63009;-68
2022/08/08 02:36:57;;;;;;;0.45;0.45;;;;;;;16.08;48.04;97239.25;29395;239;63005;-69
2022/08/08 02:38:02;;;;;;;0.40;0.40;;;;;;;16.05;48.71;97239.88;29395;207;63009;-69
2022/08/08 02:39:34;;;;;;;0.50;0.50;;;;;;;16.02;49.96;97251.47;29394;228;64009;-70
2022/08/08 02:40:31;;;;;;;0.40;0.40;;;;;;;15.94;50.44;97244.03;29395;220;63026;-70
2022/08/08 02:41:53;;;;;;;0.50;0.50;;;;;;;15.76;51.37;97253.34;29395;214;63005;-68
2022/08/08 02:43:02;;;;;;;0.40;0.40;;;;;;;15.67;51.46;97255.25;29479;307;125018;-69
2022/08/08 02:44:11;;;;;;;1.87;1.85;;;;;;;15.63;50.86;97249.59;29394;253;64009;-69
2022/08/08 02:45:00;;;;;;;0.50;0.50;;;;;;;15.60;50.75;97252.16;29394;268;64009;-69
2022/08/08 02:46:05;;;;;;;0.40;0.40;;;;;;;15.60;50.31;97250.22;29395;243;63009;-71
2022/08/08 02:47:14;;;;;;;0.50;0.50;;;;;;;15.65;50.42;97246.53;29395;196;63004;-70
2022/08/08 02:48:34;;;;;;;0.50;0.50;;;;;;;15.72;50.07;97238.69;29395;307;63008;-68
2022/08/08 02:49:52;;;;;;;0.50;0.50;;;;;;;15.75;50.41;97240.78;29394;231;64009;-70
2022/08/08 02:51:25;;;;;;;0.40;0.40;;;;;;;15.73;50.84;97245.78;29394;310;64013;-71
2022/08/08 02:52:35;;;;;;;0.40;0.40;;;;;;;15.69;50.22;97242.84;29395;220;63005;-69
2022/08/08 02:53:50;;;;;;;0.50;0.50;;;;;;;15.72;49.78;97242.22;29395;228;63004;-69
2022/08/08 02:54:43;;;;;;;0.50;0.50;;;;;;;15.77;49.52;97241.28;29395;199;63009;-68
2022/08/08 02:56:16;;;;;;;0.50;0.50;;;;;;;15.82;49.34;97240.34;29394;206;64013;-69
2022/08/08 02:57:15;;;;;;;0.50;0.50;;;;;;;15.85;48.75;97239.69;29395;258;63005;-70
2022/08/08 02:58:50;;;;;;;0.50;0.50;;;;;;;15.82;50.39;97246.59;29395;209;63009;-71
2022/08/08 03:00:06;;;;;;;0.50;0.50;;;;;;;15.71;51.17;97246.09;29395;229;63005;-70
2022/08/08 03:01:14;;;;;;;0.50;0.50;;;;;;;15.66;50.84;97250.88;29394;227;64013;-68
2022/08/08 03:02:37;;;;;;;0.50;0.50;;;;;;;15.66;51.84;97256.34;29395;261;63023;-72
2022/08/08 03:03:48;;;;;;;0.50;0.50;;;;;;;15.59;51.33;97254.09;29394;259;64009;-70
2022/08/08 03:05:11;;;;;;;0.50;0.50;;;;;;;15.58;51.01;97251.69;29395;215;63009;-69
2022/08/08 03:06:18;;;;;;;0.50;0.50;;;;;;;15.63;49.56;97246.84;29417;233;63005;-71
2022/08/08 03:07:43;;;;;;;0.50;0.50;;;;;;;15.67;48.80;97238.81;29394;258;64013;-68
2022/08/08 03:08:50;;;;;;;0.50;0.50;;;;;;;15.65;50.59;97252.00;29395;197;63004;-71
2022/08/08 03:10:16;;;;;;;0.50;0.50;;;;;;;15.62;50.63;97247.97;29394;234;64013;-71
2022/08/08 03:11:25;;;;;;;0.50;0.50;;;;;;;15.65;49.86;97247.34;29395;225;63005;-71
2022/08/08 03:12:36;;;;;;;0.50;0.50;;;;;;;15.70;49.79;97246.41;29394;257;64009;-70
2022/08/08 03:14:02;;;;;;;0.50;0.50;;;;;;;15.72;49.88;97252.38;29395;261;63009;-69
2022/08/08 03:15:28;;;;;;;0.50;0.50;;;;;;;15.72;50.03;97252.38;29394;235;64009;-69
2022/08/08 03:16:46;;;;;;;0.50;0.50;;;;;;;15.71;49.71;97250.75;29394;259;64013;-72
2022/08/08 03:17:32;;;;;;;0.50;0.50;;;;;;;15.70;50.05;97249.94;29395;205;63004;-69
2022/08/08 03:18:36;;;;;;;0.50;0.50;;;;;;;15.70;49.85;97255.41;29395;265;63009;-68
2022/08/08 03:19:18;;;;;;;0.50;0.50;;;;;;;15.74;49.62;97250.13;29395;207;63005;-70
2022/08/08 03:20:07;;;;;;;0.50;0.50;;;;;;;15.75;49.09;97249.00;29395;238;63009;-70
2022/08/08 03:20:42;;;;;;;0.50;0.50;;;;;;;15.77;48.93;97248.69;29395;247;63009;-71
2022/08/08 03:21:13;;;;;;;0.50;0.50;;;;;;;15.80;48.75;97248.84;29394;269;64013;-68
2022/08/08 03:21:44;;;;;;;0.40;0.40;;;;;;;15.84;48.64;97246.28;29395;218;63009;-69
2022/08/08 03:22:15;;;;;;;0.40;0.40;;;;;;;15.83;48.83;97253.69;29395;232;63009;-69
2022/08/08 03:22:52;;;;;;;0.50;0.50;;;;;;;15.82;49.34;97252.09;29395;245;63013;-69
2022/08/08 03:23:23;;;;;;;0.40;0.40;;;;;;;15.78;50.34;97255.78;29395;212;63004;-69
2022/08/08 03:23:54;;;;;;;0.47;0.47;;;;;;;15.76;49.75;97253.34;29395;231;63009;-68
2022/08/08 03:24:25;;;;;;;0.40;0.40;;;;;;;15.76;49.77;97247.88;29395;218;63004;-71
2022/08/08 03:24:59;;;;;;;0.40;0.40;;;;;;;15.73;50.28;97253.97;29395;208;63008;-68
2022/08/08 03:25:31;;;;;;;1.42;1.40;;;;;;;15.70;50.32;97258.16;29395;229;63004;-68
2022/08/08 03:26:02;;;;;;;0.50;0.50;;;;;;;15.69;50.32;97253.81;29394;216;64014;-71
2022/08/08 03:26:39;;;;;;;0.50;0.50;;;;;;;15.69;49.82;97253.00;29395;213;63005;-71
2022/08/08 03:27:24;;;;;;;0.40;0.40;;;;;;;15.68;50.01;97257.66;29395;242;63009;-68
2022/08/08 03:28:06;;;;;;;0.40;0.40;;;;;;;15.68;50.15;97254.12;29394;235;64009;-70
2022/08/08 03:28:45;;;;;;;0.45;0.45;;;;;;;15.68;50.22;97259.59;29395;214;63009;-69
2022/08/08 03:29:20;;;;;;;0.40;0.40;;;;;;;15.66;50.98;97261.84;29395;197;63004;-71
2022/08/08 03:30:02;;;;;;;0.50;0.50;;;;;;;15.60;51.77;97260.34;29394;224;64013;-71
2022/08/08 03:30:34;;;;;;;0.50;0.50;;;;;;;15.55;51.45;97269.50;29417;199;63015;-69
2022/08/08 03:33:40;;;;;;;0.50;0.50;;;;;;;15.38;51.31;97270.22;29395;202;63005;-69
2022/08/08 03:34:14;;;;;;;0.50;0.50;;;;;;;15.39;51.04;97260.91;29395;218;63009;-68
2022/08/08 03:34:46;;;;;;;0.50;0.50;;;;;;;15.40;51.33;97251.56;29394;234;64009;-68
2022/08/08 03:35:19;;;;;;;0.50;0.50;;;;;;;15.42;51.01;97263.00;29395;229;63009;-70
2022/08/08 03:35:51;;;;;;;0.40;0.40;;;;;;;15.45;51.24;97258.03;29395;229;63005;-70
2022/08/08 03:36:23;;;;;;;0.50;0.50;;;;;;;15.46;51.10;97259.63;29395;198;63009;-69
2022/08/08 03:36:55;;;;;;;0.50;0.50;;;;;;;15.47;51.48;97266.72;29395;219;63004;-69
2022/08/08 03:37:27;;;;;;;0.50;0.50;;;;;;;15.47;51.22;97264.00;29394;199;64013;-69
2022/08/08 03:38:00;;;;;;;0.50;0.50;;;;;;;15.49;51.20;97264.47;29395;205;63004;-69
2022/08/08 03:38:31;;;;;;;0.50;0.50;;;;;;;15.50;50.69;97260.62;29395;215;63009;-71
2022/08/08 03:39:03;;;;;;;0.50;0.50;;;;;;;15.52;50.46;97263.84;29395;204;63004;-71
2022/08/08 03:39:36;;;;;;;0.50;0.50;;;;;;;15.55;50.46;97263.22;29395;244;63008;-68
2022/08/08 03:40:08;;;;;;;0.50;0.50;;;;;;;15.54;50.36;97267.88;29395;223;63005;-71
2022/08/08 03:40:39;;;;;;;0.50;0.50;;;;;;;15.55;50.54;97264.03;29395;224;63009;-69
2022/08/08 03:41:10;;;;;;;0.50;0.50;;;;;;;15.57;50.33;97263.75;29395;218;63005;-70
2022/08/08 03:41:43;;;;;;;0.50;0.50;;;;;;;15.56;50.59;97265.69;29395;212;63009;-70
2022/08/08 03:42:16;;;;;;;0.47;0.47;;;;;;;15.55;51.43;97274.16;29395;270;63005;-69
2022/08/08 03:42:48;;;;;;;0.40;0.40;;;;;;;15.51;51.70;97274.00;29394;259;64013;-68
2022/08/08 03:43:20;;;;;;;0.50;0.50;;;;;;;15.47;51.35;97274.94;29395;223;63005;-69
2022/08/08 03:43:55;;;;;;;0.50;0.50;;;;;;;15.42;51.34;97275.88;29395;242;63009;-70
2022/08/08 03:44:32;;;;;;;0.50;0.50;;;;;;;15.39;51.63;97281.97;29395;218;63017;-71
2022/08/08 03:45:19;;;;;;;0.40;0.40;;;;;;;15.38;51.44;97272.94;29394;252;64013;-71
2022/08/08 03:45:51;;;;;;;0.50;0.50;;;;;;;15.41;51.42;97277.78;29395;242;63004;-68
2022/08/08 03:46:23;;;;;;;0.50;0.50;;;;;;;15.45;51.15;97279.91;29395;229;63009;-69
2022/08/08 03:46:54;;;;;;;0.50;0.50;;;;;;;15.47;50.79;97274.94;29395;239;63004;-70
2022/08/08 03:47:25;;;;;;;0.50;0.50;;;;;;;15.50;51.13;97271.56;29395;329;63009;-68
2022/08/08 03:48:04;;;;;;;0.50;0.50;;;;;;;15.51;50.63;97267.72;29395;211;63005;-68
2022/08/08 03:48:35;;;;;;;0.50;0.50;;;;;;;15.53;51.07;97271.75;29395;216;63009;-68
2022/08/08 03:49:20;;;;;;;0.50;0.50;;;;;;;15.53;50.72;97268.22;29395;208;63005;-71
2022/08/08 03:49:51;;;;;;;0.50;0.50;;;;;;;15.52;50.42;97275.59;29395;214;63009;-68
2022/08/08 03:50:24;;;;;;;0.50;0.50;;;;;;;15.53;50.85;97276.41;29394;207;64009;-69
2022/08/08 03:50:55;;;;;;;0.40;0.40;;;;;;;15.53;50.87;97276.41;29395;250;63009;-68
2022/08/08 03:51:28;;;;;;;0.50;0.50;;;;;;;15.52;50.75;97275.59;29395;220;63005;-70
2022/08/08 03:51:59;;;;;;;0.50;0.50;;;;;;;15.54;50.50;97278.03;29395;198;63009;-68
2022/08/08 03:52:31;;;;;;;0.50;0.50;;;;;;;15.54;50.32;97278.03;29395;218;63004;-70
2022/08/08 03:53:11;;;;;;;0.40;0.40;;;;;;;15.55;50.05;97279.63;29395;221;63009;-70
2022/08/08 03:53:43;;;;;;;0.50;0.50;;;;;;;15.56;50.08;97273.03;29416;209;64009;-68
2022/08/08 03:54:14;;;;;;;0.50;0.50;;;;;;;15.57;49.91;97271.97;29395;253;63008;-68
2022/08/08 03:54:46;;;;;;;0.50;0.50;;;;;;;15.58;51.03;97281.78;29395;243;63004;-71
2022/08/08 03:55:19;;;;;;;0.43;0.43;;;;;;;15.56;50.71;97275.78;29395;286;63009;-68
2022/08/08 03:55:51;;;;;;;0.40;0.40;;;;;;;15.57;50.75;97280.16;29395;356;63005;-68
2022/08/08 03:56:26;;;;;;;0.50;0.50;;;;;;;15.56;51.80;97286.72;29395;210;63009;-68
2022/08/08 03:56:57;;;;;;;0.45;0.45;;;;;;;15.54;51.73;97291.69;29395;214;63005;-71
2022/08/08 03:57:28;;;;;;;0.50;0.50;;;;;;;15.52;51.91;97283.81;29395;221;63009;-70
2022/08/08 03:57:59;;;;;;;0.50;0.50;;;;;;;15.49;51.69;97286.38;29394;205;64009;-69
2022/08/08 03:58:31;;;;;;;0.50;0.50;;;;;;;15.46;51.63;97287.00;29395;233;63009;-70
2022/08/08 03:59:03;;;;;;;0.50;0.50;;;;;;;15.45;51.47;97282.63;29395;213;63005;-69
2022/08/08 03:59:34;;;;;;;0.50;0.50;;;;;;;15.45;51.53;97285.38;29395;222;63009;-69
2022/08/08 04:00:11;;;;;;;0.40;0.40;;;;;;;15.43;51.69;97289.22;29395;209;63004;-68
2022/08/08 04:00:52;;;;;;;0.40;0.40;;;;;;;15.41;51.99;97296.94;29395;216;63009;-69
2022/08/08 04:01:40;;;;;;;0.50;0.50;;;;;;;15.36;52.07;97288.88;29417;196;63004;-70
2022/08/08 04:02:16;;;;;;;0.50;0.50;;;;;;;15.32;52.01;97298.81;29395;238;63008;-68
2022/08/08 04:03:05;;;;;;;0.47;0.47;;;;;;;15.31;52.45;97297.19;29394;206;64009;-68
2022/08/08 04:03:36;;;;;;;0.50;0.50;;;;;;;15.29;52.50;97298.62;29394;247;64014;-68
2022/08/08 04:04:08;;;;;;;0.40;0.40;;;;;;;15.27;52.80;97296.22;29395;229;63004;-69
2022/08/08 04:04:40;;;;;;;0.40;0.40;;;;;;;15.26;52.56;97308.25;29395;272;63009;-68
2022/08/08 04:05:14;;;;;;;0.50;0.50;;;;;;;15.26;53.06;97299.25;29395;240;63005;-71
2022/08/08 04:05:45;;;;;;;0.50;0.50;;;;;;;15.24;53.04;97302.31;29395;332;63009;-70
2022/08/08 04:06:17;;;;;;;0.50;0.50;;;;;;;15.21;53.77;97308.41;29394;202;64009;-70
2022/08/08 04:06:58;;;;;;;0.50;0.50;;;;;;;15.14;55.43;97313.50;29395;199;63009;-68
2022/08/08 04:07:34;;;;;;;;;;;;;;;15.11;54.91;97303.19;29996;983;6000;-68
2022/08/08 04:08:07;;;;;;;0.50;0.50;;;;;;;15.11;54.64;97308.66;29400;197;63004;-68
2022/08/08 04:08:38;;;;;;;0.40;0.40;;;;;;;15.11;54.16;97308.66;29395;229;63009;-69
2022/08/08 04:09:09;;;;;;;0.40;0.40;;;;;;;15.08;54.60;97309.28;29395;206;63004;-69
2022/08/08 04:10:00;;;;;;;0.50;0.50;;;;;;;15.00;54.58;97310.84;29395;207;63008;-71
2022/08/08 04:10:36;;;;;;;0.50;0.50;;;;;;;14.98;54.22;97309.53;29416;227;64009;-70
2022/08/08 04:11:14;;;;;;;0.50;0.50;;;;;;;14.97;53.83;97302.44;29395;328;63009;-69
2022/08/08 04:11:46;;;;;;;0.50;0.50;;;;;;;15.00;53.68;97304.56;29395;230;63005;-69
2022/08/08 04:12:17;;;;;;;0.50;0.50;;;;;;;15.02;53.72;97307.78;29395;220;63009;-70
2022/08/08 04:12:49;;;;;;;0.50;0.50;;;;;;;15.04;53.37;97308.28;29395;198;63005;-69
2022/08/08 04:13:20;;;;;;;0.50;0.50;;;;;;;15.06;53.63;97300.59;29395;243;63009;-69
2022/08/08 04:13:52;;;;;;;0.40;0.40;;;;;;;15.08;53.25;97298.34;29395;209;63008;-70
2022/08/08 04:14:23;;;;;;;0.50;0.50;;;;;;;15.09;53.27;97306.25;29395;222;63009;-71
2022/08/08 04:14:55;;;;;;;0.50;0.50;;;;;;;15.11;53.41;97300.47;29395;202;63007;-68
2022/08/08 04:15:26;;;;;;;0.50;0.50;;;;;;;15.13;53.41;97300.97;29394;223;64013;-70
2022/08/08 04:15:58;;;;;;;0.50;0.50;;;;;;;15.15;52.82;97303.37;29395;233;63004;-70
2022/08/08 04:16:29;;;;;;;0.50;0.50;;;;;;;15.16;53.01;97296.81;29395;226;63009;-69
2022/08/08 04:17:01;;;;;;;0.40;0.40;;;;;;;15.17;52.65;97301.97;29394;226;64008;-70
2022/08/08 04:17:33;;;;;;;0.50;0.50;;;;;;;15.18;52.89;97292.63;29395;228;63008;-70
2022/08/08 04:18:05;;;;;;;0.50;0.50;;;;;;;15.18;52.74;97302.75;29394;228;64000;-68
2022/08/08 04:18:39;;;;;;;0.40;0.40;;;;;;;15.17;53.42;97301.97;29395;253;63009;-68
2022/08/08 04:19:10;;;;;;;0.50;0.50;;;;;;;15.17;53.37;97304.69;29395;202;63005;-69
2022/08/08 04:19:42;;;;;;;0.50;0.50;;;;;;;15.19;53.28;97305.19;29395;216;63009;-69
2022/08/08 04:20:17;;;;;;;0.40;0.40;;;;;;;15.18;53.26;97306.31;29394;197;64009;-70